Time;durP1;ratioP1;P1;durP2;ratioP2;P2;SDS_P1;SDS_P2;PMS_P1;PMS_P2;Temp;Humidity;BMP_temperature;BMP_pressure;BME280_temperature;BME280_humidity;BME280_pressure;Samples;Min_cycle;Max_cycle;Signal;HPM_P1;HPM_P2
2022/08/19 00:01:57;;;;;;;6.10;5.60;;;24.30;54.30;;;;;;5068354;28;21055;-71
2022/08/19 00:04:30;;;;;;;5.33;4.87;;;24.30;54.30;;;;;;5065458;28;20478;-71
2022/08/19 00:07:01;;;;;;;6.20;5.80;;;24.30;54.30;;;;;;5051342;28;20430;-71
2022/08/19 00:09:29;;;;;;;5.30;4.90;;;24.30;54.30;;;;;;5073773;28;21043;-71
2022/08/19 00:12:00;;;;;;;5.07;4.67;;;24.30;54.30;;;;;;5053029;28;20447;-71
2022/08/19 00:14:31;;;;;;;5.53;5.13;;;24.30;54.20;;;;;;5067337;28;20473;-72
2022/08/19 00:17:01;;;;;;;5.77;5.27;;;24.30;54.20;;;;;;5048923;28;20479;-71
2022/08/19 00:19:29;;;;;;;5.13;4.73;;;24.30;54.20;;;;;;5067129;28;20840;-71
2022/08/19 00:21:58;;;;;;;5.53;5.03;;;24.30;54.20;;;;;;5051031;28;20462;-72
2022/08/19 00:24:28;;;;;;;5.63;5.23;;;24.30;54.20;;;;;;5049144;28;20478;-72
2022/08/19 00:26:57;;;;;;;5.70;5.30;;;24.30;54.20;;;;;;5053481;28;20473;-72
2022/08/19 00:29:45;;;;;;;5.67;5.17;;;24.30;54.20;;;;;;5049083;28;20466;-71
2022/08/19 00:32:20;;;;;;;6.20;5.60;;;24.30;54.20;;;;;;5041617;28;20455;-71
2022/08/19 00:34:49;;;;;;;6.20;5.70;;;24.30;54.30;;;;;;5045327;28;20900;-72
2022/08/19 00:37:17;;;;;;;5.30;4.90;;;24.30;54.20;;;;;;5049636;28;20553;-71
2022/08/19 00:39:47;;;;;;;5.23;4.83;;;24.30;54.20;;;;;;5049794;28;20454;-71
2022/08/19 00:42:16;;;;;;;5.60;5.20;;;24.30;54.30;;;;;;5049580;28;20461;-72
2022/08/19 00:44:45;;;;;;;5.90;5.50;;;24.30;54.30;;;;;;5047945;28;20536;-71
2022/08/19 00:47:14;;;;;;;5.40;5.03;;;24.30;54.30;;;;;;5053291;28;20441;-71
2022/08/19 00:49:50;;;;;;;5.60;5.20;;;24.30;54.30;;;;;;5033749;28;20833;-71
2022/08/19 00:52:23;;;;;;;5.00;4.60;;;24.20;54.10;;;;;;5041966;28;20453;-72
2022/08/19 00:54:54;;;;;;;6.10;5.63;;;24.30;54.20;;;;;;5067196;28;20500;-71
2022/08/19 00:57:29;;;;;;;5.77;5.27;;;24.30;54.20;;;;;;5050190;28;21062;-71
2022/08/19 00:59:59;;;;;;;5.80;5.40;;;24.30;54.20;;;;;;5047982;28;21059;-71
2022/08/19 01:02:31;;;;;;;6.23;5.73;;;24.20;54.00;;;;;;5053406;28;20817;-72
2022/08/19 01:05:03;;;;;;;5.77;5.37;;;24.20;54.10;;;;;;5056465;28;20481;-72
2022/08/19 01:07:31;;;;;;;5.50;5.10;;;24.20;54.10;;;;;;5033285;28;20786;-72
2022/08/19 01:10:09;;;;;;;5.70;5.30;;;24.20;54.00;;;;;;5049685;28;20453;-72
2022/08/19 01:12:39;;;;;;;5.50;5.10;;;24.20;54.10;;;;;;5048979;28;20474;-71
2022/08/19 01:15:10;;;;;;;5.90;5.40;;;24.20;54.00;;;;;;5052019;28;20463;-71
2022/08/19 01:17:40;;;;;;;5.47;5.07;;;24.20;54.10;;;;;;5067635;28;21169;-71
2022/08/19 01:20:13;;;;;;;5.97;5.47;;;24.20;54.00;;;;;;5057156;28;20442;-71
2022/08/19 01:22:45;;;;;;;6.17;5.67;;;24.20;54.30;;;;;;5049399;28;20557;-71
2022/08/19 01:25:15;;;;;;;6.00;5.50;;;24.20;54.10;;;;;;5050062;28;20495;-71
2022/08/19 01:27:47;;;;;;;5.80;5.30;;;24.20;54.10;;;;;;5067078;28;20438;-72
2022/08/19 01:30:19;;;;;;;6.00;5.60;;;24.20;54.00;;;;;;5049504;28;20454;-71
2022/08/19 01:32:47;;;;;;;5.70;5.10;;;24.20;54.00;;;;;;5048359;28;20843;-71
2022/08/19 01:35:17;;;;;;;7.43;6.93;;;24.20;54.00;;;;;;5051548;28;20442;-71
2022/08/19 01:37:50;;;;;;;5.47;5.07;;;24.20;54.10;;;;;;5048623;28;20466;-71
2022/08/19 01:40:21;;;;;;;6.27;5.70;;;24.20;54.10;;;;;;5053568;28;20502;-71
2022/08/19 01:42:49;;;;;;;6.10;5.37;;;24.20;54.10;;;;;;5055625;28;20466;-71
2022/08/19 01:45:18;;;;;;;6.53;6.10;;;24.20;54.00;;;;;;5049524;28;20859;-71
2022/08/19 01:47:47;;;;;;;6.77;5.23;;;24.20;54.00;;;;;;5048842;28;20484;-71
2022/08/19 01:50:30;;;;;;;5.50;5.10;;;24.20;54.00;;;;;;5063970;28;20496;-72
2022/08/19 01:53:01;;;;;;;6.00;5.50;;;24.20;54.00;;;;;;5053405;28;20454;-72
2022/08/19 01:55:36;;;;;;;5.77;5.27;;;24.20;54.00;;;;;;5053887;28;20438;-72
2022/08/19 01:58:11;;;;;;;5.80;5.40;;;24.20;54.00;;;;;;5053450;28;20824;-72
2022/08/19 02:00:39;;;;;;;6.10;5.70;;;24.20;53.90;;;;;;5066508;28;20478;-71
2022/08/19 02:03:09;;;;;;;6.20;5.70;;;24.20;54.00;;;;;;5072725;28;20489;-71
2022/08/19 02:05:39;;;;;;;6.27;5.77;;;24.20;54.00;;;;;;5055018;28;20949;-72
2022/08/19 02:08:10;;;;;;;5.93;5.53;;;24.20;54.00;;;;;;5064563;28;21084;-71
2022/08/19 02:10:41;;;;;;;9.17;5.70;;;24.20;54.00;;;;;;5056050;28;20480;-72
2022/08/19 02:13:10;;;;;;;5.90;5.50;;;24.20;54.00;;;;;;5070599;28;20564;-72
2022/08/19 02:15:39;;;;;;;6.23;5.80;;;24.10;54.00;;;;;;5056015;28;20496;-71
2022/08/19 02:18:08;;;;;;;6.20;5.80;;;24.10;53.90;;;;;;5076823;28;21012;-71
2022/08/19 02:20:38;;;;;;;6.47;6.07;;;24.10;53.80;;;;;;5060997;28;20470;-73
2022/08/19 02:23:07;;;;;;;5.57;5.17;;;24.20;54.00;;;;;;5055050;28;20558;-72
2022/08/19 02:25:46;;;;;;;5.83;5.43;;;24.10;53.90;;;;;;5056759;28;20449;-72
2022/08/19 02:28:14;;;;;;;5.80;5.40;;;24.10;53.90;;;;;;5059780;28;20489;-71
2022/08/19 02:30:48;;;;;;;6.30;5.80;;;24.10;53.80;;;;;;5055402;28;20430;-71
2022/08/19 02:33:17;;;;;;;6.03;5.47;;;24.10;53.90;;;;;;5063383;28;20523;-72
2022/08/19 02:35:47;;;;;;;5.70;5.30;;;24.20;53.90;;;;;;5070685;28;20503;-72
2022/08/19 02:38:28;;;;;;;6.13;5.63;;;24.10;53.80;;;;;;5054816;28;20465;-71
2022/08/19 02:41:00;;;;;;;5.80;5.40;;;24.10;53.80;;;;;;5055380;28;20465;-71
2022/08/19 02:43:31;;;;;;;5.40;5.00;;;24.10;53.80;;;;;;5046127;28;20845;-71
2022/08/19 02:46:02;;;;;;;6.23;5.80;;;24.10;53.90;;;;;;5067904;28;20429;-72
2022/08/19 02:48:32;;;;;;;5.70;5.30;;;24.10;53.80;;;;;;5054745;28;20462;-72
2022/08/19 02:51:01;;;;;;;5.90;5.40;;;24.10;53.90;;;;;;5054549;28;20456;-72
2022/08/19 02:53:29;;;;;;;5.17;4.77;;;24.10;53.80;;;;;;5066855;28;20471;-72
2022/08/19 02:55:59;;;;;;;5.67;5.27;;;24.10;53.90;;;;;;5055322;28;20529;-72
2022/08/19 02:58:27;;;;;;;5.97;5.57;;;24.10;53.80;;;;;;5050597;28;20497;-72
2022/08/19 03:00:58;;;;;;;5.77;5.37;;;24.10;53.80;;;;;;5072857;28;20442;-71
2022/08/19 03:03:26;;;;;;;5.67;5.27;;;24.10;53.90;;;;;;5051198;28;20473;-72
2022/08/19 03:06:05;;;;;;;6.50;5.90;;;24.10;53.80;;;;;;5051401;28;20446;-72
2022/08/19 03:08:34;;;;;;;6.60;6.10;;;24.10;53.80;;;;;;5069328;28;20466;-72
2022/08/19 03:11:04;;;;;;;5.67;5.27;;;24.10;53.80;;;;;;5052170;28;20873;-72
2022/08/19 03:13:33;;;;;;;5.87;5.47;;;24.10;53.90;;;;;;5061801;28;20470;-72
2022/08/19 03:16:05;;;;;;;6.67;6.17;;;24.10;53.80;;;;;;5049852;28;20484;-72
2022/08/19 03:18:34;;;;;;;5.27;4.93;;;24.10;53.80;;;;;;5052479;28;20475;-72
2022/08/19 03:21:02;;;;;;;5.63;5.23;;;24.10;53.70;;;;;;5050200;28;20443;-72
2022/08/19 03:23:31;;;;;;;5.43;5.13;;;24.10;53.80;;;;;;5051165;28;20477;-72
2022/08/19 03:25:59;;;;;;;6.13;5.57;;;24.10;53.80;;;;;;5066634;28;20435;-72
2022/08/19 03:28:49;;;;;;;5.03;4.70;;;24.00;53.60;;;;;;5067624;28;21016;-72
2022/08/19 03:31:27;;;;;;;6.27;5.80;;;24.10;53.80;;;;;;5040126;28;20968;-71
2022/08/19 03:34:19;;;;;;;6.13;5.73;;;24.10;53.80;;;;;;5067479;28;20470;-72
2022/08/19 03:36:48;;;;;;;6.20;5.70;;;24.00;53.60;;;;;;5050747;28;20460;-71
2022/08/19 03:39:17;;;;;;;7.60;7.10;;;24.00;53.70;;;;;;5051268;28;20534;-71
2022/08/19 03:41:48;;;;;;;7.83;7.23;;;24.00;53.70;;;;;;5051354;28;20997;-71
2022/08/19 03:44:38;;;;;;;6.30;5.90;;;24.00;53.80;;;;;;5050019;28;20569;-71
2022/08/19 03:47:07;;;;;;;6.90;6.30;;;24.00;53.90;;;;;;5051741;28;20441;-71
2022/08/19 03:49:36;;;;;;;6.20;5.80;;;24.00;53.80;;;;;;5046802;28;20475;-72
2022/08/19 03:52:07;;;;;;;6.90;6.40;;;24.00;53.80;;;;;;5049673;28;20501;-72
2022/08/19 03:54:37;;;;;;;6.50;6.00;;;24.00;53.80;;;;;;5050516;28;20466;-72
2022/08/19 03:57:07;;;;;;;6.53;6.00;;;24.00;53.80;;;;;;5051720;28;20981;-72
2022/08/19 03:59:36;;;;;;;5.90;5.50;;;24.00;53.80;;;;;;5049251;28;20832;-72
2022/08/19 04:02:11;;;;;;;6.57;5.97;;;24.00;53.90;;;;;;5050977;28;20490;-72
2022/08/19 04:04:41;;;;;;;6.03;5.63;;;24.00;53.90;;;;;;5051908;28;20857;-72
2022/08/19 04:07:11;;;;;;;6.60;6.07;;;24.00;53.90;;;;;;5051561;28;21137;-72
2022/08/19 04:09:39;;;;;;;6.30;5.90;;;24.00;53.90;;;;;;5050493;28;20465;-71
2022/08/19 04:12:08;;;;;;;6.63;6.13;;;24.00;54.00;;;;;;5050902;28;20496;-71
2022/08/19 04:14:37;;;;;;;7.00;6.50;;;23.90;53.90;;;;;;5046887;28;20810;-72
2022/08/19 04:17:07;;;;;;;7.53;6.93;;;23.90;53.90;;;;;;5051382;28;21281;-72
2022/08/19 04:19:37;;;;;;;5.80;5.40;;;23.90;53.80;;;;;;5046583;28;21089;-71
2022/08/19 04:22:06;;;;;;;8.30;7.50;;;23.90;53.90;;;;;;5059942;28;20470;-71
2022/08/19 04:24:36;;;;;;;6.20;5.70;;;23.90;53.90;;;;;;5044662;28;20531;-71
2022/08/19 04:27:05;;;;;;;6.70;6.20;;;23.90;53.70;;;;;;5051082;28;20952;-71
2022/08/19 04:29:34;;;;;;;7.33;6.83;;;23.90;53.70;;;;;;5049836;28;20547;-72
2022/08/19 04:32:05;;;;;;;6.73;6.23;;;23.90;53.70;;;;;;5049098;28;20466;-71
2022/08/19 04:34:39;;;;;;;6.50;6.00;;;23.90;53.70;;;;;;5046105;28;21441;-71
2022/08/19 04:37:32;;;;;;;5.20;4.80;;;23.90;53.70;;;;;;5048782;28;20470;-71
2022/08/19 04:42:51;;;;;;;6.30;5.87;;;23.90;53.70;;;;;;5047103;28;20540;-71
2022/08/19 04:45:20;;;;;;;7.30;6.70;;;23.90;53.70;;;;;;5051030;28;20614;-71
2022/08/19 04:47:50;;;;;;;6.20;5.80;;;23.90;53.80;;;;;;5077354;28;20805;-71
2022/08/19 04:50:28;;;;;;;7.20;6.70;;;23.90;53.80;;;;;;5038918;28;20443;-71
2022/08/19 04:52:56;;;;;;;7.53;6.90;;;23.90;53.80;;;;;;5047420;28;20509;-71
2022/08/19 04:55:26;;;;;;;7.93;7.23;;;23.90;53.80;;;;;;5050890;28;20465;-72
2022/08/19 04:57:55;;;;;;;7.07;6.47;;;23.90;53.80;;;;;;5068530;28;20565;-71
2022/08/19 05:00:24;;;;;;;6.80;6.30;;;23.90;53.80;;;;;;5050088;28;20438;-72
2022/08/19 05:02:52;;;;;;;7.07;6.57;;;23.90;53.80;;;;;;5050547;28;20454;-72
2022/08/19 05:05:21;;;;;;;8.43;7.83;;;23.80;53.70;;;;;;5060097;28;20441;-72
2022/08/19 05:07:51;;;;;;;8.73;8.13;;;23.90;55.10;;;;;;5066827;28;21060;-72
2022/08/19 05:10:20;;;;;;;8.17;7.47;;;23.80;53.80;;;;;;5050544;28;20525;-71
2022/08/19 05:12:48;;;;;;;8.80;8.00;;;23.90;53.90;;;;;;5046795;28;20471;-72
2022/08/19 05:15:18;;;;;;;7.73;7.13;;;23.90;54.00;;;;;;5068592;28;20437;-71
2022/08/19 05:23:16;;;;;;;7.50;6.90;;;23.80;54.00;;;;;;5041988;28;20462;-71
2022/08/19 05:25:51;;;;;;;9.37;8.67;;;23.80;54.00;;;;;;5050334;28;21040;-72
2022/08/19 05:28:20;;;;;;;10.00;9.10;;;23.80;54.20;;;;;;5067062;28;20438;-72
2022/08/19 05:30:50;;;;;;;10.10;9.10;;;23.80;54.30;;;;;;5050426;28;20465;-71
2022/08/19 05:33:19;;;;;;;9.03;8.13;;;23.80;54.20;;;;;;5050161;28;20461;-68
2022/08/19 05:35:49;;;;;;;11.70;10.20;;;23.80;54.20;;;;;;5042212;28;20453;-72
2022/08/19 05:38:19;;;;;;;9.10;8.23;;;23.80;54.20;;;;;;5048031;28;20474;-71
2022/08/19 05:40:49;;;;;;;8.30;7.70;;;23.80;54.30;;;;;;5058450;28;20472;-71
2022/08/19 05:43:17;;;;;;;10.20;9.20;;;23.80;54.30;;;;;;5049125;28;20473;-71
2022/08/19 05:45:46;;;;;;;9.93;9.13;;;23.80;54.20;;;;;;5057133;28;20437;-72
2022/08/19 05:48:20;;;;;;;9.80;9.00;;;23.70;54.20;;;;;;5050025;28;21003;-72
2022/08/19 05:50:49;;;;;;;10.57;9.67;;;23.80;54.30;;;;;;5049232;28;20453;-71
2022/08/19 05:53:20;;;;;;;11.40;10.03;;;23.80;54.30;;;;;;5049588;28;20493;-71
2022/08/19 05:55:48;;;;;;;9.00;8.30;;;23.80;54.40;;;;;;5049300;28;20441;-71
2022/08/19 05:58:17;;;;;;;8.83;7.97;;;23.70;54.30;;;;;;5068101;28;20463;-72
2022/08/19 06:00:50;;;;;;;10.90;8.00;;;23.70;54.30;;;;;;5049615;28;20443;-72
2022/08/19 06:03:18;;;;;;;11.10;10.00;;;23.70;54.30;;;;;;5058815;28;20478;-72
2022/08/19 06:05:47;;;;;;;9.17;8.37;;;23.80;54.40;;;;;;5060345;28;20499;-71
2022/08/19 06:08:23;;;;;;;10.27;9.37;;;23.80;54.40;;;;;;5042062;28;20530;-71
2022/08/19 06:11:14;;;;;;;10.43;9.27;;;23.70;54.50;;;;;;5050514;28;20445;-68
2022/08/19 06:13:44;;;;;;;8.97;8.27;;;23.70;54.30;;;;;;5047806;28;20453;-68
2022/08/19 06:16:13;;;;;;;11.03;10.03;;;23.70;54.40;;;;;;5049458;28;20508;-67
2022/08/19 06:18:43;;;;;;;9.77;8.90;;;23.70;54.50;;;;;;5048448;28;20965;-67
2022/08/19 06:21:12;;;;;;;9.20;8.40;;;23.70;54.50;;;;;;5058955;28;20442;-67
2022/08/19 06:23:42;;;;;;;10.83;9.93;;;23.70;54.50;;;;;;5043173;28;20451;-67
2022/08/19 06:26:13;;;;;;;10.00;9.10;;;23.70;54.80;;;;;;5048876;28;20434;-71
2022/08/19 06:28:46;;;;;;;14.97;11.83;;;23.70;54.60;;;;;;5050284;28;20458;-68
2022/08/19 06:31:16;;;;;;;11.17;10.17;;;23.70;54.80;;;;;;5055858;28;20924;-68
2022/08/19 06:33:46;;;;;;;11.23;10.23;;;23.70;54.70;;;;;;5075161;28;20874;-67
2022/08/19 06:36:19;;;;;;;11.33;10.23;;;23.70;54.70;;;;;;5061380;28;20812;-68
2022/08/19 06:38:53;;;;;;;10.20;9.30;;;23.60;54.60;;;;;;5024689;28;21080;-67
2022/08/19 06:41:22;;;;;;;11.20;10.07;;;23.70;54.70;;;;;;5045017;28;20522;-67
2022/08/19 06:43:50;;;;;;;9.70;8.80;;;23.60;54.60;;;;;;5049613;28;20469;-69
2022/08/19 06:46:24;;;;;;;9.10;8.30;;;23.60;54.70;;;;;;5045641;28;20798;-68
2022/08/19 06:48:56;;;;;;;9.30;8.40;;;23.70;54.60;;;;;;5032951;28;21000;-68
2022/08/19 06:51:25;;;;;;;12.20;10.90;;;23.60;54.50;;;;;;5032704;28;20432;-68
2022/08/19 06:53:59;;;;;;;12.50;11.40;;;23.70;54.80;;;;;;5030170;28;21554;-68
2022/08/19 06:56:33;;;;;;;12.10;10.90;;;23.70;54.80;;;;;;5032723;28;20454;-69
2022/08/19 06:59:03;;;;;;;10.77;9.73;;;23.60;54.70;;;;;;5048157;28;20557;-68
2022/08/19 07:01:37;;;;;;;11.10;10.10;;;23.70;56.00;;;;;;5069725;23;20498;-53
2022/08/19 07:04:07;;;;;;;15.33;12.20;;;23.60;54.70;;;;;;5069209;28;20469;-51
2022/08/19 07:06:39;;;;;;;13.37;12.07;;;23.60;55.10;;;;;;5087710;28;20433;-53
2022/08/19 07:09:15;;;;;;;12.27;10.97;;;23.70;55.10;;;;;;5072033;28;20993;-53
2022/08/19 07:11:47;;;;;;;14.37;12.97;;;23.60;54.90;;;;;;5084644;28;20437;-52
2022/08/19 07:14:18;;;;;;;16.53;14.87;;;23.70;54.60;;;;;;5089877;28;20473;-53
2022/08/19 07:16:49;;;;;;;20.73;18.50;;;23.70;54.60;;;;;;5076313;28;20477;-52
2022/08/19 07:19:20;;;;;;;20.87;18.77;;;23.70;54.70;;;;;;5078622;28;20503;-53
2022/08/19 07:21:50;;;;;;;24.37;21.73;;;23.70;54.90;;;;;;5070756;28;20627;-52
2022/08/19 07:24:23;;;;;;;25.00;22.27;;;23.80;55.30;;;;;;5068493;28;20578;-53
2022/08/19 07:26:53;;;;;;;22.77;20.20;;;23.70;55.60;;;;;;5068342;28;20433;-53
2022/08/19 07:29:24;;;;;;;20.90;18.80;;;23.70;55.80;;;;;;5074507;28;20452;-53
2022/08/19 07:31:58;;;;;;;26.30;23.60;;;23.70;55.80;;;;;;5071532;28;20441;-51
2022/08/19 07:34:29;;;;;;;24.30;21.70;;;23.70;55.80;;;;;;5072371;28;20469;-53
2022/08/19 07:36:59;;;;;;;22.03;19.73;;;23.70;55.60;;;;;;5077882;28;20452;-53
2022/08/19 07:39:31;;;;;;;25.77;21.80;;;23.70;55.90;;;;;;5071767;28;20473;-53
2022/08/19 07:42:03;;;;;;;19.97;18.00;;;23.80;56.00;;;;;;5083071;28;20433;-53
2022/08/19 07:44:33;;;;;;;20.57;18.40;;;23.80;55.70;;;;;;5069388;28;20486;-53
2022/08/19 07:47:03;;;;;;;20.53;18.00;;;23.90;55.90;;;;;;5098471;28;20467;-54
2022/08/19 07:49:32;;;;;;;20.70;16.43;;;23.90;55.70;;;;;;5067090;28;20474;-52
2022/08/19 07:52:03;;;;;;;18.40;16.60;;;24.00;55.50;;;;;;5071981;28;20437;-52
2022/08/19 07:54:36;;;;;;;16.93;15.40;;;24.00;55.20;;;;;;5084008;28;20484;-52
2022/08/19 07:57:06;;;;;;;14.93;13.53;;;24.00;55.10;;;;;;5081664;28;20444;-53
2022/08/19 07:59:35;;;;;;;13.50;12.30;;;24.10;54.70;;;;;;5066644;28;20556;-53
2022/08/19 08:02:04;;;;;;;13.93;12.53;;;24.10;54.40;;;;;;5072930;28;20449;-52
2022/08/19 08:10:15;;;;;;;10.90;9.77;;;24.30;53.70;;;;;;5081846;28;20473;-53
2022/08/19 08:12:49;;;;;;;10.10;9.23;;;24.30;54.50;;;;;;5089909;28;20445;-54
2022/08/19 08:15:39;;;;;;;10.57;9.47;;;24.30;53.30;;;;;;5091251;28;20525;-51
2022/08/19 08:18:11;;;;;;;11.83;10.47;;;24.30;53.20;;;;;;5073537;28;20465;-53
2022/08/19 08:20:41;;;;;;;13.77;10.43;;;24.30;52.90;;;;;;5071918;28;20881;-53
2022/08/19 08:23:24;;;;;;;9.23;8.33;;;24.30;54.40;;;;;;5072326;28;20473;-51
2022/08/19 08:25:57;;;;;;;12.50;11.20;;;24.20;53.20;;;;;;5073131;28;20440;-53
2022/08/19 08:28:27;;;;;;;10.37;9.37;;;24.20;53.20;;;;;;5071208;28;21088;-52
2022/08/19 08:30:58;;;;;;;10.53;9.53;;;24.20;53.20;;;;;;5072430;28;20452;-51
2022/08/19 08:33:28;;;;;;;11.03;10.03;;;24.20;53.20;;;;;;5068662;28;20534;-51
2022/08/19 08:36:05;;;;;;;13.03;11.50;;;24.10;53.40;;;;;;5088683;28;20502;-53
2022/08/19 08:38:35;;;;;;;16.13;12.53;;;24.10;54.80;;;;;;5073877;28;21001;-51
2022/08/19 08:41:19;;;;;;;13.40;11.10;;;24.10;53.50;;;;;;5072792;28;22257;-52
2022/08/19 08:43:50;;;;;;;11.70;10.60;;;24.10;53.70;;;;;;5079693;28;20453;-51
2022/08/19 08:46:26;;;;;;;12.10;10.90;;;24.10;53.70;;;;;;5071076;28;20483;-53
2022/08/19 08:49:11;;;;;;;12.23;10.97;;;24.10;54.10;;;;;;5089765;28;20434;-52
2022/08/19 08:51:43;;;;;;;12.93;9.73;;;24.00;54.40;;;;;;5067744;28;20430;-53
2022/08/19 08:54:19;;;;;;;12.07;10.87;;;23.90;54.50;;;;;;5071817;28;20522;-53
2022/08/19 08:56:52;;;;;;;10.70;9.20;;;23.90;54.60;;;;;;5055705;28;20441;-53
2022/08/19 08:59:26;;;;;;;12.80;11.50;;;23.80;55.80;;;;;;5083431;28;20559;-52
2022/08/19 09:01:55;;;;;;;11.50;10.40;;;23.80;54.80;;;;;;5072779;28;20445;-53
2022/08/19 09:04:24;;;;;;;10.53;9.50;;;23.80;54.90;;;;;;5075460;28;20481;-53
2022/08/19 09:06:57;;;;;;;10.13;8.90;;;23.70;55.00;;;;;;5076602;28;20430;-52
2022/08/19 09:09:34;;;;;;;12.20;10.47;;;23.70;55.10;;;;;;5076765;28;20464;-52
2022/08/19 09:12:15;;;;;;;12.67;11.37;;;23.70;55.20;;;;;;5082619;28;20414;-53
2022/08/19 09:14:49;;;;;;;14.80;11.17;;;23.60;55.30;;;;;;5084129;28;20491;-53
2022/08/19 09:17:30;;;;;;;13.67;12.37;;;23.60;55.40;;;;;;5072728;28;20982;-52
2022/08/19 09:20:07;;;;;;;13.47;10.90;;;23.60;55.50;;;;;;5068517;28;20484;-54
2022/08/19 09:22:37;;;;;;;12.33;11.17;;;23.60;55.70;;;;;;5077991;28;20512;-54
2022/08/19 09:25:08;;;;;;;13.73;11.63;;;23.60;55.80;;;;;;5073374;28;20481;-52
2022/08/19 09:27:39;;;;;;;13.53;12.23;;;23.60;55.80;;;;;;5067942;28;21066;-52
2022/08/19 09:30:23;;;;;;;13.97;12.67;;;23.60;55.90;;;;;;5072158;28;20453;-52
2022/08/19 09:32:53;;;;;;;13.37;11.90;;;23.60;55.90;;;;;;5075401;28;20990;-53
2022/08/19 09:35:30;;;;;;;14.57;13.17;;;23.60;56.20;;;;;;5061427;28;20993;-53
2022/08/19 09:38:00;;;;;;;16.50;13.30;;;23.60;56.20;;;;;;5070670;28;20429;-51
2022/08/19 09:40:31;;;;;;;16.13;13.80;;;23.60;56.20;;;;;;5062261;28;20481;-53
2022/08/19 09:43:08;;;;;;;15.60;14.03;;;23.60;56.10;;;;;;5066178;28;20485;-53
2022/08/19 09:45:41;;;;;;;17.50;14.67;;;23.60;56.40;;;;;;5060447;28;20446;-53
2022/08/19 09:48:10;;;;;;;14.87;13.37;;;23.60;56.40;;;;;;5090660;28;20528;-53
2022/08/19 09:50:39;;;;;;;14.50;13.10;;;23.60;56.30;;;;;;5082485;28;20445;-53
2022/08/19 09:53:22;;;;;;;13.03;11.83;;;23.60;56.20;;;;;;5077723;28;21021;-52
2022/08/19 09:55:56;;;;;;;12.50;11.47;;;23.60;56.20;;;;;;5074589;28;20447;-53
2022/08/19 09:58:27;;;;;;;12.67;11.47;;;23.60;55.90;;;;;;5062608;28;20591;-53
2022/08/19 10:00:57;;;;;;;12.93;11.73;;;23.60;55.90;;;;;;5069770;28;20560;-53
2022/08/19 10:03:26;;;;;;;13.00;11.80;;;23.60;56.00;;;;;;5072509;28;20457;-52
2022/08/19 10:06:00;;;;;;;12.50;11.50;;;23.60;56.00;;;;;;5074239;28;20490;-53
2022/08/19 10:08:31;;;;;;;13.00;11.73;;;23.60;55.90;;;;;;5074330;28;20462;-53
2022/08/19 10:11:01;;;;;;;11.70;10.70;;;23.60;55.90;;;;;;5074355;28;20461;-54
2022/08/19 10:13:51;;;;;;;11.30;10.20;;;23.60;56.00;;;;;;5070761;28;21014;-51
2022/08/19 10:16:23;;;;;;;12.77;11.67;;;23.60;55.90;;;;;;5090870;28;20451;-53
2022/08/19 10:18:58;;;;;;;13.63;12.43;;;23.60;56.00;;;;;;5074674;28;20777;-52
2022/08/19 10:21:29;;;;;;;11.40;10.40;;;23.60;56.10;;;;;;5073696;28;20465;-53
2022/08/19 10:24:03;;;;;;;14.40;13.10;;;23.60;55.90;;;;;;5072451;28;20858;-52
2022/08/19 10:26:37;;;;;;;12.50;11.40;;;23.60;56.20;;;;;;5067397;28;20433;-52
2022/08/19 10:29:07;;;;;;;12.83;11.73;;;23.60;56.00;;;;;;5073963;28;20833;-52
2022/08/19 10:31:36;;;;;;;13.10;11.90;;;23.60;56.00;;;;;;5055474;28;20551;-52
2022/08/19 10:34:25;;;;;;;14.03;12.70;;;23.60;56.00;;;;;;5063351;28;20481;-52
2022/08/19 10:36:56;;;;;;;13.67;12.37;;;23.60;55.90;;;;;;5071313;28;20464;-53
2022/08/19 10:39:30;;;;;;;11.93;10.93;;;23.60;55.90;;;;;;5071709;28;21060;-53
2022/08/19 10:42:05;;;;;;;14.00;12.77;;;23.60;55.90;;;;;;5074883;28;20494;-52
2022/08/19 10:44:36;;;;;;;15.23;13.73;;;23.60;56.00;;;;;;5073899;28;20469;-52
2022/08/19 10:47:05;;;;;;;13.77;12.57;;;23.60;55.90;;;;;;5087741;28;20449;-53
2022/08/19 10:52:40;;;;;;;13.33;12.17;;;23.60;55.90;;;;;;5089489;28;20856;-52
2022/08/19 10:58:12;;;;;;;13.33;12.00;;;23.60;55.90;;;;;;5071352;28;20438;-53
2022/08/19 11:00:42;;;;;;;12.80;11.60;;;23.60;55.90;;;;;;5073378;28;20528;-53
2022/08/19 11:03:11;;;;;;;12.97;11.90;;;23.60;55.90;;;;;;5056509;28;20514;-53
2022/08/19 11:05:41;;;;;;;13.77;12.57;;;23.60;55.90;;;;;;5071712;28;20483;-53
2022/08/19 11:08:11;;;;;;;14.23;12.80;;;23.60;55.90;;;;;;5073652;28;20471;-53
2022/08/19 11:10:58;;;;;;;14.07;12.80;;;23.60;55.90;;;;;;5072834;28;20774;-52
2022/08/19 11:13:28;;;;;;;12.40;11.20;;;23.60;55.90;;;;;;5054476;28;20475;-53
2022/08/19 11:16:04;;;;;;;13.73;12.53;;;23.60;55.90;;;;;;5070376;28;20540;-53
2022/08/19 11:18:37;;;;;;;12.83;11.73;;;23.60;55.80;;;;;;5078074;28;20436;-52
2022/08/19 11:21:16;;;;;;;14.40;13.20;;;23.60;55.70;;;;;;5067734;28;20473;-53
2022/08/19 11:23:46;;;;;;;13.87;12.67;;;23.60;55.70;;;;;;5070389;28;20489;-52
2022/08/19 11:26:15;;;;;;;15.53;13.97;;;23.60;55.70;;;;;;5073343;28;20451;-52
2022/08/19 11:28:44;;;;;;;15.30;13.70;;;23.60;55.60;;;;;;5071231;28;20518;-53
2022/08/19 11:31:16;;;;;;;17.30;15.60;;;23.70;55.50;;;;;;5090237;28;20454;-54
2022/08/19 11:33:47;;;;;;;16.27;14.23;;;23.70;55.40;;;;;;5099295;28;20506;-53
2022/08/19 11:36:17;;;;;;;18.00;16.30;;;23.80;55.40;;;;;;5074219;28;20453;-52
2022/08/19 11:38:48;;;;;;;16.77;15.07;;;23.80;55.50;;;;;;5071738;28;20473;-53
2022/08/19 11:41:18;;;;;;;16.53;15.03;;;23.80;55.30;;;;;;5070503;28;20466;-54
2022/08/19 11:43:47;;;;;;;17.00;15.27;;;23.80;55.30;;;;;;5084345;28;20475;-52
2022/08/19 11:46:19;;;;;;;16.07;14.47;;;23.80;55.30;;;;;;5091439;28;20528;-52
2022/08/19 11:48:49;;;;;;;14.37;12.90;;;23.80;55.40;;;;;;5085222;28;20452;-53
2022/08/19 11:51:19;;;;;;;16.57;14.83;;;23.80;55.30;;;;;;5082051;28;20469;-53
2022/08/19 11:53:51;;;;;;;14.57;13.27;;;23.80;55.40;;;;;;5078863;28;20456;-53
2022/08/19 11:56:20;;;;;;;15.80;14.20;;;23.70;55.20;;;;;;5069436;28;20531;-54
2022/08/19 11:58:50;;;;;;;15.43;13.83;;;23.70;55.30;;;;;;5073333;28;20469;-53
2022/08/19 12:01:23;;;;;;;12.40;11.30;;;23.70;55.20;;;;;;5065866;28;20473;-53
2022/08/19 12:03:54;;;;;;;13.47;12.17;;;23.70;55.10;;;;;;5077310;28;20461;-53
2022/08/19 12:06:25;;;;;;;13.73;12.53;;;23.70;55.10;;;;;;5073091;28;20442;-52
2022/08/19 12:08:54;;;;;;;12.03;10.93;;;23.70;55.10;;;;;;5077668;28;20556;-52
2022/08/19 12:11:23;;;;;;;13.03;11.93;;;23.70;55.10;;;;;;5093982;28;20466;-53
2022/08/19 12:13:53;;;;;;;12.93;11.70;;;23.70;55.10;;;;;;5090043;28;20810;-53
2022/08/19 12:16:26;;;;;;;14.27;12.87;;;23.70;55.00;;;;;;5072561;28;20439;-53
2022/08/19 12:18:57;;;;;;;11.97;10.80;;;23.70;55.00;;;;;;5067300;28;20469;-53
2022/08/19 12:21:28;;;;;;;13.40;12.20;;;23.70;54.90;;;;;;5077292;28;20451;-52
2022/08/19 12:23:58;;;;;;;12.43;11.43;;;23.80;55.00;;;;;;5076540;28;20453;-52
2022/08/19 12:26:31;;;;;;;13.37;12.13;;;23.70;54.80;;;;;;5085534;28;20445;-52
2022/08/19 12:29:00;;;;;;;12.57;11.47;;;23.70;54.80;;;;;;5071367;28;20469;-53
2022/08/19 12:31:32;;;;;;;11.37;10.37;;;23.70;54.80;;;;;;5089413;28;20425;-53
2022/08/19 12:34:01;;;;;;;10.60;9.70;;;23.70;54.80;;;;;;5070198;28;20564;-52
2022/08/19 12:36:30;;;;;;;12.37;11.27;;;23.70;54.80;;;;;;5084140;28;20536;-54
2022/08/19 12:39:00;;;;;;;13.10;11.90;;;23.70;55.10;;;;;;5080186;28;20439;-51
2022/08/19 12:41:29;;;;;;;12.03;10.83;;;23.80;54.80;;;;;;5088122;28;20537;-50
2022/08/19 12:43:58;;;;;;;11.10;10.10;;;23.80;54.80;;;;;;5067621;28;21064;-52
2022/08/19 12:46:28;;;;;;;11.90;10.80;;;23.80;54.80;;;;;;5081343;28;20461;-52
2022/08/19 12:48:59;;;;;;;13.30;10.70;;;23.80;54.60;;;;;;5084857;28;20433;-53
2022/08/19 12:51:33;;;;;;;13.10;11.80;;;23.80;54.70;;;;;;5084983;28;21002;-53
2022/08/19 12:54:04;;;;;;;11.23;10.27;;;23.80;54.80;;;;;;5094578;28;20503;-52
2022/08/19 12:56:33;;;;;;;11.30;10.40;;;23.80;54.60;;;;;;5099572;28;20447;-52
2022/08/19 12:59:03;;;;;;;10.47;9.57;;;23.80;54.60;;;;;;5086925;28;20464;-51
2022/08/19 13:01:32;;;;;;;12.00;10.90;;;23.80;54.60;;;;;;5066022;23;20575;-95
2022/08/19 13:04:01;;;;;;;13.00;10.60;;;23.80;54.50;;;;;;5024501;28;20468;-95
2022/08/19 13:06:30;;;;;;;11.67;10.67;;;23.80;54.50;;;;;;5010808;28;21135;-96
2022/08/19 13:08:58;;;;;;;11.67;10.57;;;23.80;54.50;;;;;;5012148;28;20463;-94
2022/08/19 13:11:32;;;;;;;11.80;10.50;;;23.80;54.40;;;;;;5016516;28;20464;-95
2022/08/19 13:14:01;;;;;;;12.40;11.20;;;23.80;54.70;;;;;;5015368;28;20467;-94
2022/08/19 13:16:29;;;;;;;11.33;10.07;;;23.90;54.50;;;;;;5016269;28;20440;-95
2022/08/19 13:18:58;;;;;;;11.37;10.37;;;23.90;54.50;;;;;;5015404;28;20476;-96